메인 페이지
METAR-TAF:

METAR-TAF

공항 :

테드 스티븐스 앵커리지 국제공항

앵커리지, 알래스카, 미국

위도: 61-10-28N, 경도: 149-59-46W, 고도: 44m

현재 날씨관측

예보는 1 시간 5분 전, 03:53시(UTC)에 발표되었습니다.
북북서5kt
온도 6°C
습도 87%
기압 993 hPa
시정: 11.3km
고도 700ft 상공 구름 조금
고도 1500ft 상공 구름 보통
고도 7000ft 상공 흐림

METAR: PANC 160353Z 34005KT 7SM RA FEW007 SCT015 OVC070 06/04 A2932 RMK AO2 SLP930 P0005 T00610044

시각: 20:58 (04:58 UTC)

예보

예보는 5 시간 20분 전, 23:38시(UTC)에 발표되었습니다.
예보 대상 시간: 16일 00시부터 17일 06시까지 (UTC)
10kt
시정: 9.7km
고도 6000ft 상공 구름 많음
약한비, 박무
16일 0600시부터 (UTC)
7kt
시정: 8.0km
고도 3000ft 상공 구름 많음
고도 5000ft 상공 흐림
약한비, 박무
16일 1500시부터 (UTC)
남동10kt
시정: 10km
고도 3000ft 상공 구름 보통
고도 5000ft 상공 구름 많음
고도 8000ft 상공 흐림
약한소나기
16일 1800시부터 (UTC)
남동10kt, 순간 최대 풍속 20kt
시정: 10km
고도 5000ft 상공 구름 많음
약한소나기

TAF: PANC 152338Z 1600/1706 36010KT 6SM -RA BR BKN060 WS020/12030KT FM160600 36007KT 5SM -RA BR BKN030 OVC050 FM161500 14010KT P6SM -SHRA SCT030 BKN050 OVC080 FM161800 14010G20KT P6SM -SHRA BKN050

4,000개 이상의 공항 관측 자료 및 예보 (METAR 및 TAF 보고).

지도상에서 검색 가능한 기상관측소가 노란 점과 빨간 점으로 표시되어 있습니다.

기상관측소 명을 보려면 표시 위로 마우스를 이동하세요.

날씨 관측과 예보를 보려면 클릭하세요.

지도 변경 : 확대하려면 엑스 표시가 있는 녹색 버튼, 축소하려면 빼기 표시가 있는 녹색 버튼, 다음 페이지의 지도를 보려면 녹색 화살표를 클릭하세요.


METAR-TAF: